VTK501 UWKD-USSS
Flight info
| Callsign | VTK501 |
|---|---|
| Flight time | 1h 15m |
| Altitude | 39000 |
| Route | RIMIP1H RIMIP L94 LOMBI LOMBI6S |
| Aircraft | A388/J-SADE2E3FGHIJ3J4J5M1RWXY/LB1D1 |
Departure
| Time | 2026-05-04 09:27 |
|---|---|
| Airport | Kazan International Airport (UWKD) |
Arrival
| Time | 2026-05-04 10:42 |
|---|---|
| Airport | Koltsovo Airport (USSS) |
| Time | Latitude | Longitude | Altitude | Speed | Heading |
|---|---|---|---|---|---|
| 2026-05-04 09:12 | 55.60632 | 49.30126 | 409 ft | 0 kts | 34° |
| 2026-05-04 09:18 | 55.60631 | 49.30126 | 409 ft | 1 kts | 34° |
| 2026-05-04 09:19 | 55.60626 | 49.30119 | 409 ft | 1 kts | 34° |
| 2026-05-04 09:19 | 55.60621 | 49.30112 | 409 ft | 1 kts | 34° |
| 2026-05-04 09:19 | 55.60615 | 49.30105 | 409 ft | 1 kts | 35° |
| 2026-05-04 09:19 | 55.60610 | 49.30097 | 409 ft | 1 kts | 46° |
| 2026-05-04 09:20 | 55.60607 | 49.30087 | 409 ft | 1 kts | 61° |
| 2026-05-04 09:20 | 55.60605 | 49.30075 | 409 ft | 1 kts | 76° |
| 2026-05-04 09:20 | 55.60605 | 49.30063 | 409 ft | 1 kts | 90° |
| 2026-05-04 09:20 | 55.60606 | 49.30055 | 409 ft | 0 kts | 100° |
| 2026-05-04 09:21 | 55.60607 | 49.30051 | 409 ft | 1 kts | 106° |
| 2026-05-04 09:21 | 55.60610 | 49.30040 | 409 ft | 1 kts | 120° |
| 2026-05-04 09:21 | 55.60611 | 49.30040 | 409 ft | 0 kts | 122° |
| 2026-05-04 09:23 | 55.60606 | 49.30053 | 409 ft | 5 kts | 122° |
| 2026-05-04 09:23 | 55.60581 | 49.30088 | 412 ft | 6 kts | 187° |
| 2026-05-04 09:23 | 55.60517 | 49.30057 | 414 ft | 13 kts | 213° |
| 2026-05-04 09:23 | 55.60430 | 49.29956 | 412 ft | 17 kts | 214° |
| 2026-05-04 09:25 | 55.59929 | 49.30114 | 414 ft | 8 kts | 202° |
| 2026-05-04 09:25 | 55.59864 | 49.30053 | 418 ft | 13 kts | 214° |
| 2026-05-04 09:26 | 55.59846 | 49.29982 | 411 ft | 10 kts | 268° |
| 2026-05-04 09:26 | 55.59884 | 49.29803 | 413 ft | 30 kts | 303° |
| 2026-05-04 09:26 | 55.60168 | 49.29038 | 421 ft | 115 kts | 303° |
| 2026-05-04 09:26 | 55.60734 | 49.27595 | 468 ft | 163 kts | 304° |
| 2026-05-04 09:27 | 55.61356 | 49.25948 | 1104 ft | 159 kts | 306° |
| 2026-05-04 09:27 | 55.61994 | 49.24336 | 1729 ft | 161 kts | 306° |
| 2026-05-04 09:27 | 55.62641 | 49.22681 | 2269 ft | 170 kts | 306° |
| 2026-05-04 09:27 | 55.63345 | 49.20873 | 2586 ft | 189 kts | 306° |
| 2026-05-04 09:28 | 55.64131 | 49.18845 | 3159 ft | 206 kts | 306° |
| 2026-05-04 09:28 | 55.64944 | 49.16737 | 4036 ft | 209 kts | 306° |
| 2026-05-04 09:28 | 55.65755 | 49.14591 | 5013 ft | 211 kts | 300° |
| 2026-05-04 09:28 | 55.66105 | 49.12061 | 5927 ft | 220 kts | 269° |
| 2026-05-04 09:29 | 55.65613 | 49.09434 | 6678 ft | 240 kts | 238° |
| 2026-05-04 09:29 | 55.64361 | 49.07269 | 7195 ft | 266 kts | 218° |
| 2026-05-04 09:29 | 55.62752 | 49.05398 | 7742 ft | 285 kts | 213° |
| 2026-05-04 09:29 | 55.60994 | 49.03700 | 8562 ft | 293 kts | 200° |
| 2026-05-04 09:30 | 55.59663 | 49.03223 | 9190 ft | 296 kts | 183° |
| 2026-05-04 09:30 | 55.57003 | 49.04342 | 10387 ft | 304 kts | 150° |
| 2026-05-04 09:30 | 55.55415 | 49.06817 | 11200 ft | 309 kts | 128° |
| 2026-05-04 09:30 | 55.54221 | 49.09993 | 11972 ft | 314 kts | 121° |
| 2026-05-04 09:31 | 55.53109 | 49.13341 | 12650 ft | 323 kts | 122° |
| 2026-05-04 09:31 | 55.51905 | 49.16834 | 12879 ft | 345 kts | 123° |
| 2026-05-04 09:31 | 55.50918 | 49.20805 | 13083 ft | 367 kts | 103° |
| 2026-05-04 09:31 | 55.50787 | 49.25353 | 13589 ft | 377 kts | 82° |
| 2026-05-04 09:32 | 55.51386 | 49.29867 | 14236 ft | 382 kts | 74° |
| 2026-05-04 09:32 | 55.52119 | 49.34400 | 14888 ft | 386 kts | 74° |
| 2026-05-04 09:34 | 55.57085 | 49.66959 | 19642 ft | 395 kts | 79° |
| 2026-05-04 09:34 | 55.57779 | 49.71659 | 20306 ft | 395 kts | 79° |
| 2026-05-04 09:34 | 55.58466 | 49.76314 | 21052 ft | 391 kts | 80° |
| 2026-05-04 09:34 | 55.59150 | 49.80962 | 21649 ft | 392 kts | 79° |
| 2026-05-04 09:35 | 55.59830 | 49.85608 | 22300 ft | 391 kts | 79° |
| 2026-05-04 09:35 | 55.60505 | 49.90227 | 22890 ft | 390 kts | 79° |
| 2026-05-04 09:35 | 55.61180 | 49.94860 | 23509 ft | 389 kts | 79° |
| 2026-05-04 09:35 | 55.61853 | 49.99495 | 24026 ft | 390 kts | 78° |
| 2026-05-04 09:37 | 55.68772 | 50.31229 | 27754 ft | 405 kts | 66° |
| 2026-05-04 09:37 | 55.69873 | 50.35817 | 28231 ft | 408 kts | 65° |
| 2026-05-04 09:38 | 55.70989 | 50.40471 | 28678 ft | 413 kts | 65° |
| 2026-05-04 09:38 | 55.72114 | 50.45174 | 29118 ft | 417 kts | 65° |
| 2026-05-04 09:38 | 55.73245 | 50.49913 | 29593 ft | 420 kts | 65° |
| 2026-05-04 09:38 | 55.74385 | 50.54702 | 30079 ft | 423 kts | 65° |
| 2026-05-04 09:39 | 55.75532 | 50.59531 | 30551 ft | 427 kts | 65° |
| 2026-05-04 09:39 | 55.76685 | 50.64394 | 30999 ft | 430 kts | 65° |
| 2026-05-04 09:39 | 55.77846 | 50.69303 | 31465 ft | 434 kts | 65° |
| 2026-05-04 09:39 | 55.79015 | 50.74257 | 31898 ft | 437 kts | 65° |
| 2026-05-04 09:40 | 55.80189 | 50.79248 | 32329 ft | 440 kts | 65° |
| 2026-05-04 09:40 | 55.81370 | 50.84275 | 32744 ft | 444 kts | 65° |
| 2026-05-04 09:40 | 55.82558 | 50.89346 | 33193 ft | 446 kts | 65° |
| 2026-05-04 09:40 | 55.83752 | 50.94452 | 33610 ft | 449 kts | 65° |
| 2026-05-04 09:41 | 55.84949 | 50.99584 | 34010 ft | 453 kts | 65° |
| 2026-05-04 09:42 | 55.93327 | 51.35874 | 35750 ft | 451 kts | 65° |
| 2026-05-04 09:43 | 55.94516 | 51.41071 | 36078 ft | 454 kts | 65° |
| 2026-05-04 09:43 | 55.95703 | 51.46271 | 36572 ft | 454 kts | 65° |
| 2026-05-04 09:43 | 55.96892 | 51.51498 | 36728 ft | 453 kts | 65° |
| 2026-05-04 09:43 | 55.98068 | 51.56680 | 36747 ft | 450 kts | 66° |
| 2026-05-04 09:44 | 56.00406 | 51.67020 | 36747 ft | 450 kts | 66° |
| 2026-05-04 09:46 | 56.04890 | 52.11078 | 36747 ft | 458 kts | 83° |
| 2026-05-04 09:46 | 56.05288 | 52.22423 | 36747 ft | 458 kts | 83° |
| 2026-05-04 09:47 | 56.05663 | 52.33772 | 36746 ft | 458 kts | 83° |
| 2026-05-04 09:49 | 56.07002 | 52.79202 | 36746 ft | 458 kts | 84° |
| 2026-05-04 09:51 | 56.07955 | 53.18993 | 36748 ft | 459 kts | 84° |
| 2026-05-04 09:51 | 56.08205 | 53.30369 | 36746 ft | 459 kts | 84° |
| 2026-05-04 09:52 | 56.08445 | 53.41761 | 36746 ft | 458 kts | 84° |
| 2026-05-04 09:52 | 56.08674 | 53.53134 | 36745 ft | 458 kts | 84° |
| 2026-05-04 09:53 | 56.08894 | 53.64536 | 36747 ft | 459 kts | 84° |
| 2026-05-04 09:53 | 56.09107 | 53.75936 | 36746 ft | 459 kts | 84° |
| 2026-05-04 09:54 | 56.09308 | 53.87324 | 36747 ft | 458 kts | 84° |
| 2026-05-04 09:54 | 56.09499 | 53.98708 | 36748 ft | 459 kts | 85° |
| 2026-05-04 09:55 | 56.09678 | 54.10095 | 36746 ft | 458 kts | 85° |
| 2026-05-04 09:55 | 56.09848 | 54.21476 | 36746 ft | 458 kts | 85° |
| 2026-05-04 09:56 | 56.10016 | 54.32861 | 36745 ft | 458 kts | 83° |
| 2026-05-04 09:56 | 56.10848 | 54.44074 | 36746 ft | 455 kts | 78° |
| 2026-05-04 09:57 | 56.11836 | 54.55276 | 36746 ft | 456 kts | 78° |
| 2026-05-04 09:57 | 56.12803 | 54.66477 | 36747 ft | 456 kts | 78° |
| 2026-05-04 09:58 | 56.13759 | 54.77669 | 36747 ft | 455 kts | 78° |
| 2026-05-04 09:58 | 56.14707 | 54.88876 | 36746 ft | 455 kts | 78° |
| 2026-05-04 10:00 | 56.18400 | 55.33778 | 36748 ft | 456 kts | 78° |
| 2026-05-04 10:04 | 56.24489 | 56.12590 | 36746 ft | 456 kts | 79° |
| 2026-05-04 10:04 | 56.25318 | 56.23860 | 36746 ft | 456 kts | 79° |
| 2026-05-04 10:05 | 56.26138 | 56.35147 | 36747 ft | 456 kts | 79° |
| 2026-05-04 10:05 | 56.26814 | 56.44564 | 36747 ft | 457 kts | 79° |
| 2026-05-04 10:06 | 56.27749 | 56.57762 | 36747 ft | 457 kts | 79° |
| 2026-05-04 10:06 | 56.28369 | 56.66603 | 36747 ft | 456 kts | 79° |
| 2026-05-04 10:08 | 56.29797 | 56.87254 | 36747 ft | 457 kts | 79° |
| 2026-05-04 10:08 | 56.30561 | 56.98535 | 36747 ft | 457 kts | 80° |
| 2026-05-04 10:09 | 56.31320 | 57.09877 | 36746 ft | 457 kts | 80° |
| 2026-05-04 10:09 | 56.32068 | 57.21237 | 36747 ft | 457 kts | 80° |
| 2026-05-04 10:10 | 56.32803 | 57.32542 | 36746 ft | 458 kts | 80° |
| 2026-05-04 10:10 | 56.33531 | 57.43921 | 36747 ft | 458 kts | 80° |
| 2026-05-04 10:11 | 56.34127 | 57.53371 | 36746 ft | 459 kts | 80° |
| 2026-05-04 10:11 | 56.34955 | 57.66668 | 36747 ft | 458 kts | 80° |
| 2026-05-04 10:12 | 56.35537 | 57.76177 | 36747 ft | 458 kts | 80° |
| 2026-05-04 10:12 | 56.35996 | 57.83761 | 36569 ft | 456 kts | 81° |
| 2026-05-04 10:12 | 56.36336 | 57.89416 | 35948 ft | 456 kts | 81° |
| 2026-05-04 10:13 | 56.36562 | 57.93200 | 35326 ft | 459 kts | 81° |
| 2026-05-04 10:13 | 56.37019 | 58.00881 | 33869 ft | 467 kts | 81° |
| 2026-05-04 10:13 | 56.37354 | 58.06590 | 33059 ft | 467 kts | 81° |
| 2026-05-04 10:13 | 56.37688 | 58.12364 | 32504 ft | 460 kts | 81° |
| 2026-05-04 10:14 | 56.37904 | 58.16137 | 32276 ft | 452 kts | 81° |
| 2026-05-04 10:14 | 56.38325 | 58.23548 | 31863 ft | 439 kts | 81° |
| 2026-05-04 10:16 | 56.40384 | 58.60579 | 28035 ft | 409 kts | 82° |
| 2026-05-04 10:16 | 56.40657 | 58.65644 | 27510 ft | 404 kts | 83° |
| 2026-05-04 10:16 | 56.40925 | 58.70660 | 26988 ft | 399 kts | 83° |
| 2026-05-04 10:16 | 56.41187 | 58.75600 | 26480 ft | 394 kts | 84° |
| 2026-05-04 10:17 | 56.41441 | 58.80404 | 25974 ft | 389 kts | 85° |
| 2026-05-04 10:17 | 56.41696 | 58.85293 | 25460 ft | 384 kts | 86° |
| 2026-05-04 10:19 | 56.43367 | 59.17727 | 22006 ft | 365 kts | 88° |
| 2026-05-04 10:19 | 56.43636 | 59.22281 | 21506 ft | 366 kts | 88° |
| 2026-05-04 10:19 | 56.43907 | 59.26858 | 21008 ft | 368 kts | 88° |
| 2026-05-04 10:19 | 56.44175 | 59.31452 | 20503 ft | 370 kts | 89° |
| 2026-05-04 10:20 | 56.44439 | 59.36099 | 19987 ft | 377 kts | 88° |
| 2026-05-04 10:20 | 56.44706 | 59.40840 | 19462 ft | 381 kts | 88° |
| 2026-05-04 10:20 | 56.44973 | 59.45582 | 18935 ft | 380 kts | 88° |
| 2026-05-04 10:20 | 56.45238 | 59.50311 | 18407 ft | 379 kts | 88° |
| 2026-05-04 10:21 | 56.45499 | 59.55038 | 17880 ft | 378 kts | 87° |
| 2026-05-04 10:21 | 56.45758 | 59.59750 | 17349 ft | 378 kts | 86° |
| 2026-05-04 10:21 | 56.46014 | 59.64469 | 16818 ft | 377 kts | 86° |
| 2026-05-04 10:21 | 56.46267 | 59.69146 | 16290 ft | 377 kts | 85° |
| 2026-05-04 10:22 | 56.46768 | 59.78517 | 15229 ft | 375 kts | 84° |
| 2026-05-04 10:22 | 56.47017 | 59.83196 | 14700 ft | 374 kts | 84° |
| 2026-05-04 10:22 | 56.47261 | 59.87852 | 14176 ft | 372 kts | 84° |
| 2026-05-04 10:23 | 56.47501 | 59.92446 | 13661 ft | 370 kts | 83° |
| 2026-05-04 10:23 | 56.47740 | 59.97063 | 13140 ft | 367 kts | 83° |
| 2026-05-04 10:25 | 56.49297 | 60.28034 | 10036 ft | 329 kts | 82° |
| 2026-05-04 10:25 | 56.49492 | 60.32048 | 9913 ft | 316 kts | 82° |
| 2026-05-04 10:25 | 56.49681 | 60.35937 | 9802 ft | 303 kts | 82° |
| 2026-05-04 10:25 | 56.49860 | 60.39650 | 9679 ft | 291 kts | 82° |
| 2026-05-04 10:26 | 56.50034 | 60.43252 | 9249 ft | 291 kts | 82° |
| 2026-05-04 10:26 | 56.50211 | 60.46902 | 9028 ft | 291 kts | 82° |
| 2026-05-04 10:26 | 56.50383 | 60.50506 | 8724 ft | 287 kts | 82° |
| 2026-05-04 10:26 | 56.50550 | 60.54073 | 8429 ft | 283 kts | 82° |
| 2026-05-04 10:27 | 56.50714 | 60.57594 | 8122 ft | 280 kts | 82° |
| 2026-05-04 10:27 | 56.50876 | 60.61067 | 7821 ft | 276 kts | 82° |
| 2026-05-04 10:27 | 56.51035 | 60.64493 | 7536 ft | 273 kts | 82° |
| 2026-05-04 10:27 | 56.51192 | 60.67898 | 7251 ft | 270 kts | 82° |
| 2026-05-04 10:28 | 56.51342 | 60.71218 | 7153 ft | 260 kts | 82° |
| 2026-05-04 10:28 | 56.51473 | 60.74426 | 6956 ft | 255 kts | 88° |
| 2026-05-04 10:28 | 56.51038 | 60.77537 | 6729 ft | 261 kts | 118° |
| 2026-05-04 10:28 | 56.49819 | 60.79913 | 6623 ft | 264 kts | 147° |
| 2026-05-04 10:29 | 56.48136 | 60.81272 | 6444 ft | 266 kts | 162° |
| 2026-05-04 10:29 | 56.46983 | 60.81903 | 6324 ft | 265 kts | 164° |
| 2026-05-04 10:29 | 56.44631 | 60.83118 | 6065 ft | 263 kts | 163° |
| 2026-05-04 10:29 | 56.42904 | 60.84186 | 5880 ft | 261 kts | 153° |
| 2026-05-04 10:30 | 56.41470 | 60.86143 | 5720 ft | 258 kts | 129° |
| 2026-05-04 10:30 | 56.40353 | 60.88648 | 5703 ft | 258 kts | 127° |
| 2026-05-04 10:30 | 56.39213 | 60.91153 | 5662 ft | 259 kts | 128° |
| 2026-05-04 10:30 | 56.38074 | 60.93618 | 5641 ft | 259 kts | 128° |
| 2026-05-04 10:31 | 56.36921 | 60.96103 | 5617 ft | 258 kts | 128° |
| 2026-05-04 10:31 | 56.35976 | 60.98779 | 5575 ft | 255 kts | 109° |
| 2026-05-04 10:32 | 56.36990 | 61.15509 | 5403 ft | 237 kts | 16° |
| 2026-05-04 10:33 | 56.38547 | 61.15750 | 5393 ft | 234 kts | 352° |
| 2026-05-04 10:33 | 56.40142 | 61.15282 | 5366 ft | 235 kts | 349° |
| 2026-05-04 10:33 | 56.41749 | 61.14773 | 5342 ft | 235 kts | 350° |
| 2026-05-04 10:33 | 56.43353 | 61.14341 | 5305 ft | 234 kts | 352° |
| 2026-05-04 10:34 | 56.44966 | 61.13976 | 5284 ft | 234 kts | 353° |
| 2026-05-04 10:34 | 56.46585 | 61.13652 | 5256 ft | 234 kts | 353° |
| 2026-05-04 10:34 | 56.48207 | 61.13346 | 5157 ft | 235 kts | 353° |
| 2026-05-04 10:34 | 56.49829 | 61.13045 | 5035 ft | 234 kts | 353° |
| 2026-05-04 10:35 | 56.51449 | 61.12744 | 4936 ft | 235 kts | 353° |
| 2026-05-04 10:35 | 56.53049 | 61.12449 | 4830 ft | 233 kts | 355° |
| 2026-05-04 10:35 | 56.54671 | 61.12424 | 4712 ft | 233 kts | 360° |
| 2026-05-04 10:35 | 56.55744 | 61.12445 | 4633 ft | 234 kts | 359° |
| 2026-05-04 10:36 | 56.57904 | 61.12464 | 4398 ft | 234 kts | 359° |
| 2026-05-04 10:36 | 56.59512 | 61.12472 | 4177 ft | 233 kts | 359° |
| 2026-05-04 10:36 | 56.61115 | 61.12481 | 3962 ft | 232 kts | 359° |
| 2026-05-04 10:36 | 56.62162 | 61.12486 | 3819 ft | 231 kts | 359° |
| 2026-05-04 10:37 | 56.64279 | 61.12478 | 3525 ft | 230 kts | 355° |
| 2026-05-04 10:37 | 56.65831 | 61.12039 | 3306 ft | 227 kts | 347° |
| 2026-05-04 10:37 | 56.66862 | 61.11656 | 3161 ft | 228 kts | 348° |
| 2026-05-04 10:37 | 56.68901 | 61.10940 | 2874 ft | 229 kts | 348° |
| 2026-05-04 10:39 | 56.73413 | 60.98979 | 2531 ft | 203 kts | 276° |
| 2026-05-04 10:39 | 56.73500 | 60.96477 | 2271 ft | 188 kts | 276° |
| 2026-05-04 10:39 | 56.73588 | 60.94289 | 2014 ft | 162 kts | 276° |
| 2026-05-04 10:40 | 56.73659 | 60.92403 | 1812 ft | 142 kts | 277° |
| 2026-05-04 10:40 | 56.73728 | 60.90676 | 1630 ft | 136 kts | 277° |
| 2026-05-04 10:40 | 56.73795 | 60.88982 | 1448 ft | 134 kts | 277° |
| 2026-05-04 10:40 | 56.73859 | 60.87288 | 1282 ft | 135 kts | 276° |
| 2026-05-04 10:41 | 56.73928 | 60.85607 | 1097 ft | 134 kts | 276° |
| 2026-05-04 10:41 | 56.73990 | 60.83931 | 928 ft | 134 kts | 276° |
| 2026-05-04 10:41 | 56.74061 | 60.82260 | 799 ft | 133 kts | 276° |
| 2026-05-04 10:41 | 56.74127 | 60.80583 | 780 ft | 120 kts | 274° |
| 2026-05-04 10:42 | 56.74163 | 60.79727 | 780 ft | 78 kts | 275° |
| 2026-05-04 10:42 | 56.74185 | 60.79289 | 779 ft | 0 kts | 275° |
| 2026-05-04 10:42 | 56.74185 | 60.79281 | 779 ft | 6 kts | 275° |
| 2026-05-04 10:42 | 56.74207 | 60.79143 | 779 ft | 12 kts | 323° |
| 2026-05-04 10:43 | 56.74290 | 60.79113 | 779 ft | 14 kts | 6° |
| 2026-05-04 10:44 | 56.74917 | 60.79840 | 779 ft | 13 kts | 360° |
| 2026-05-04 10:45 | 56.74923 | 60.79840 | 779 ft | 0 kts | 359° |